Time;durP1;ratioP1;P1;durP2;ratioP2;P2;SDS_P1;SDS_P2;PMS_P1;PMS_P2;Temp;Humidity;BMP_temperature;BMP_pressure;BME280_temperature;BME280_humidity;BME280_pressure;Samples;Min_cycle;Max_cycle;Signal;HPM_P1;HPM_P2
2022/08/18 00:01:23;;;;;;;111.95;18.15;;;;;;;17.80;86.36;99434.70;1637116;87;21009;-62
2022/08/18 00:03:51;;;;;;;69.55;18.80;;;;;;;17.74;86.38;99434.70;1640655;85;21054;-62
2022/08/18 00:06:18;;;;;;;26.57;18.45;;;;;;;17.71;86.46;99436.75;1635513;86;21091;-62
2022/08/18 00:08:45;;;;;;;19.25;17.35;;;;;;;17.66;86.52;99437.95;1630528;87;21803;-62
2022/08/18 00:11:12;;;;;;;19.35;17.50;;;;;;;17.63;86.45;99446.12;1615386;87;20986;-61
2022/08/18 00:13:38;;;;;;;23.83;16.70;;;;;;;17.63;86.45;99446.12;1613055;87;20974;-62
2022/08/18 00:16:06;;;;;;;25.92;17.98;;;;;;;17.57;86.59;99438.70;1634379;86;21016;-62
2022/08/18 00:18:32;;;;;;;29.30;17.15;;;;;;;17.50;86.58;99440.14;1636920;86;21032;-62
2022/08/18 00:21:01;;;;;;;46.40;17.73;;;;;;;17.41;86.66;99443.53;1637746;86;22303;-62
2022/08/18 00:23:31;;;;;;;20.32;17.65;;;;;;;17.36;86.74;99440.41;1637270;86;21524;-62
2022/08/18 00:25:58;;;;;;;17.98;16.27;;;;;;;17.31;86.95;99442.58;1637589;86;20996;-61
2022/08/18 00:28:24;;;;;;;17.42;15.78;;;;;;;17.29;87.04;99437.92;1631226;87;21088;-62
2022/08/18 00:30:51;;;;;;;16.97;15.38;;;;;;;17.28;87.19;99442.83;1635849;87;21088;-62
2022/08/18 00:33:18;;;;;;;17.55;15.65;;;;;;;17.28;87.32;99438.87;1637749;86;21534;-62
2022/08/18 00:35:44;;;;;;;19.93;16.43;;;;;;;17.26;87.38;99440.33;1611633;87;21093;-62
2022/08/18 00:38:11;;;;;;;49.73;15.90;;;;;;;17.27;87.53;99439.35;1614648;88;21682;-62
2022/08/18 00:40:43;;;;;;;43.33;15.30;;;;;;;17.31;87.68;99441.26;1615635;87;21054;-62
2022/08/18 00:43:16;;;;;;;34.40;13.83;;;;;;;17.34;87.95;99441.05;1630598;87;21369;-62
2022/08/18 00:45:43;;;;;;;41.55;16.00;;;;;;;17.31;87.88;99438.63;1606141;87;21110;-62
2022/08/18 00:48:12;;;;;;;20.37;16.60;;;;;;;17.32;88.04;99442.95;1621020;87;21119;-62
2022/08/18 00:50:53;;;;;;;37.38;16.73;;;;;;;17.31;87.93;99439.94;1635887;87;21002;-62
2022/08/18 00:53:49;;;;;;;52.83;16.25;;;;;;;17.32;88.17;99439.00;1635456;87;21177;-63
2022/08/18 00:56:21;;;;;;;85.03;14.83;;;;;;;17.33;88.17;99436.70;1635873;86;21042;-62
2022/08/18 00:59:05;;;;;;;196.98;16.93;;;;;;;17.35;88.39;99437.43;1635690;87;21093;-62
2022/08/18 01:01:33;;;;;;;257.80;19.15;;;;;;;17.36;88.39;99429.86;1620614;88;21546;-61
2022/08/18 01:04:05;;;;;;;75.67;14.95;;;;;;;17.36;88.39;99427.22;1629836;87;22439;-61
2022/08/18 01:06:38;;;;;;;66.80;15.78;;;;;;;17.37;88.58;99427.59;1645397;86;21045;-62
2022/08/18 01:09:06;;;;;;;257.32;14.25;;;;;;;17.37;88.58;99432.88;1645383;86;21045;-62
2022/08/18 01:11:35;;;;;;;143.57;18.87;;;;;;;17.39;88.85;99432.25;1648105;85;21187;-62
2022/08/18 01:14:04;;;;;;;263.37;18.15;;;;;;;17.39;88.60;99430.94;1654935;85;22208;-62
2022/08/18 01:22:12;;;;;;;128.93;15.50;;;;;;;17.28;88.81;99440.19;1618575;87;21065;-62
2022/08/18 01:27:25;;;;;;;;;;;;;;;17.23;88.97;99432.17;1622688;87;21025;-61
2022/08/18 01:29:52;;;;;;;102.65;10.65;;;;;;;17.24;89.42;99429.05;1643977;85;24566;-61
2022/08/18 01:32:22;;;;;;;13.43;11.90;;;;;;;17.25;89.51;99425.92;1644368;86;20973;-62
2022/08/18 01:34:51;;;;;;;13.08;11.97;;;;;;;17.26;89.52;99426.30;1640260;85;21083;-61
2022/08/18 01:37:22;;;;;;;30.45;11.08;;;;;;;17.26;89.41;99424.98;1648734;86;21597;-61
2022/08/18 01:39:50;;;;;;;17.62;10.68;;;;;;;17.25;89.50;99425.92;1618268;87;21626;-61
2022/08/18 01:42:17;;;;;;;137.68;9.30;;;;;;;17.25;89.56;99425.92;1635375;86;21052;-61
2022/08/18 01:44:46;;;;;;;166.07;10.23;;;;;;;17.29;90.04;99420.77;1637069;86;21099;-62
2022/08/18 01:47:17;;;;;;;53.02;11.10;;;;;;;17.31;90.03;99422.78;1645294;86;20920;-62
2022/08/18 01:49:43;;;;;;;76.42;12.55;;;;;;;17.27;89.75;99425.33;1642931;85;22012;-62
2022/08/18 01:52:19;;;;;;;32.65;12.65;;;;;;;17.26;89.90;99423.66;1644123;86;21038;-62
2022/08/18 01:54:47;;;;;;;61.23;13.38;;;;;;;17.22;89.76;99426.55;1642995;85;22211;-61
2022/08/18 01:57:15;;;;;;;216.20;15.48;;;;;;;17.23;89.94;99427.38;1652937;86;21078;-61
2022/08/18 01:59:42;;;;;;;224.22;9.78;;;;;;;17.23;90.04;99427.38;1651006;86;20964;-61
2022/08/18 02:02:13;;;;;;;87.22;7.97;;;;;;;17.26;90.18;99427.62;1652826;86;21874;-61
2022/08/18 02:04:41;;;;;;;126.27;7.95;;;;;;;17.30;90.55;99427.72;1653669;86;21584;-61
2022/08/18 02:07:11;;;;;;;129.53;9.48;;;;;;;17.33;90.61;99422.19;1648203;86;21002;-61
2022/08/18 02:09:40;;;;;;;96.95;10.18;;;;;;;17.34;90.61;99426.05;1653257;86;21024;-61
2022/08/18 02:12:08;;;;;;;144.53;10.03;;;;;;;17.31;90.43;99426.30;1653906;85;21055;-62
2022/08/18 02:14:36;;;;;;;79.00;8.58;;;;;;;17.31;90.42;99422.78;1648924;86;21140;-61
2022/08/18 02:17:06;;;;;;;113.97;9.20;;;;;;;17.30;90.50;99422.44;1652132;85;21574;-61
2022/08/18 02:19:41;;;;;;;150.42;12.82;;;;;;;17.31;90.75;99422.78;1649092;86;20968;-61
2022/08/18 02:22:11;;;;;;;160.60;13.03;;;;;;;17.29;90.39;99423.41;1653321;86;21100;-61
2022/08/18 02:24:38;;;;;;;75.90;12.30;;;;;;;17.22;90.33;99423.05;1653011;86;20956;-61
2022/08/18 02:27:06;;;;;;;120.92;12.05;;;;;;;17.17;90.47;99420.79;1651693;86;22035;-61
2022/08/18 02:29:34;;;;;;;135.50;13.85;;;;;;;17.16;90.60;99415.14;1649308;85;20978;-61
2022/08/18 02:32:00;;;;;;;140.12;15.55;;;;;;;17.16;90.62;99411.17;1627938;86;21089;-61
2022/08/18 02:34:27;;;;;;;166.15;14.98;;;;;;;17.14;90.63;99417.08;1648531;85;21718;-61
2022/08/18 02:36:54;;;;;;;188.72;16.70;;;;;;;17.11;90.63;99416.01;1644410;85;21001;-61
2022/08/18 02:39:21;;;;;;;191.45;15.85;;;;;;;17.08;90.57;99414.06;1643579;86;21436;-61
2022/08/18 02:41:47;;;;;;;184.35;15.05;;;;;;;16.96;90.33;99412.76;1651435;85;20962;-61
2022/08/18 02:44:14;;;;;;;119.60;13.20;;;;;;;16.88;90.43;99409.88;1637827;87;21047;-61
2022/08/18 02:46:41;;;;;;;56.80;13.68;;;;;;;16.83;90.47;99405.93;1642956;85;21787;-60
2022/08/18 02:49:07;;;;;;;110.40;14.40;;;;;;;16.79;90.78;99407.97;1645352;85;21022;-61
2022/08/18 02:51:35;;;;;;;90.32;13.08;;;;;;;16.76;90.85;99395.87;1646467;86;21053;-61
2022/08/18 02:54:01;;;;;;;;;;;;;;;16.74;90.87;99405.65;1644219;87;21085;-61
2022/08/18 02:56:30;;;;;;;27.50;13.75;;;;;;;16.73;91.08;99397.88;1616712;87;20131;-61
2022/08/18 02:59:20;;;;;;;52.93;14.15;;;;;;;16.71;91.07;99398.47;1644351;85;21018;-61
2022/08/18 03:01:50;;;;;;;23.35;13.25;;;;;;;16.68;91.05;99402.18;1602004;88;21055;-61
2022/08/18 03:04:27;;;;;;;134.12;14.10;;;;;;;16.66;91.16;99400.14;1595400;88;21968;-62
2022/08/18 03:06:55;;;;;;;140.62;13.13;;;;;;;16.67;91.17;99403.16;1597508;88;21099;-61
2022/08/18 03:09:22;;;;;;;94.42;12.82;;;;;;;16.65;91.25;99403.73;1593280;88;21057;-62
2022/08/18 03:11:49;;;;;;;;;;;;;;;16.67;91.43;99417.65;1603255;88;21099;-62
2022/08/18 03:14:15;;;;;;;198.10;13.30;;;;;;;16.68;91.41;99416.68;1600923;88;20108;-62
2022/08/18 03:16:46;;;;;;;102.27;10.68;;;;;;;16.64;91.43;99421.84;1594057;89;22321;-62
2022/08/18 03:19:16;;;;;;;106.27;11.57;;;;;;;16.67;91.56;99424.72;1589301;88;20981;-61
2022/08/18 03:21:46;;;;;;;107.60;10.95;;;;;;;16.72;91.75;99423.86;1593251;88;21017;-62
2022/08/18 03:24:13;;;;;;;70.45;10.65;;;;;;;16.72;91.56;99428.69;1598700;88;21084;-61
2022/08/18 03:26:43;;;;;;;123.30;10.43;;;;;;;16.69;91.45;99422.78;1602251;88;26849;-62
2022/08/18 03:29:11;;;;;;;67.62;12.30;;;;;;;16.68;91.58;99427.22;1601376;88;22248;-62
2022/08/18 03:31:38;;;;;;;120.62;12.15;;;;;;;16.69;91.72;99421.02;1598117;88;21533;-62
2022/08/18 03:34:07;;;;;;;135.93;12.28;;;;;;;16.72;91.65;99418.14;1601714;88;21098;-63
2022/08/18 03:36:35;;;;;;;97.65;11.70;;;;;;;16.70;91.43;99409.50;1602032;87;21180;-62
2022/08/18 03:39:09;;;;;;;160.65;12.18;;;;;;;16.68;91.49;99411.41;1605400;88;21071;-63
2022/08/18 03:41:40;;;;;;;160.70;10.68;;;;;;;16.64;91.54;99407.34;1607128;87;21126;-61
2022/08/18 03:44:07;;;;;;;63.73;9.98;;;;;;;16.68;91.74;99412.73;1559143;91;21621;-61
2022/08/18 03:46:33;;;;;;;150.95;12.07;;;;;;;16.69;91.78;99406.97;1607134;87;21098;-61
2022/08/18 03:49:00;;;;;;;112.53;11.17;;;;;;;16.69;91.82;99406.97;1626126;87;21573;-62
2022/08/18 03:51:33;;;;;;;;;;;;;;;16.74;92.10;99410.92;1598949;88;21545;-62
2022/08/18 03:54:02;;;;;;;90.03;10.50;;;;;;;16.82;92.24;99414.80;1598911;88;21701;-62
2022/08/18 03:56:33;;;;;;;119.77;11.88;;;;;;;16.91;92.24;99414.08;1613954;87;21684;-62
2022/08/18 03:59:08;;;;;;;98.40;11.08;;;;;;;16.99;92.27;99411.68;1616698;87;21068;-62
2022/08/18 04:01:39;;;;;;;97.33;10.78;;;;;;;17.08;92.28;99409.62;1622474;87;21027;-62
2022/08/18 04:04:10;;;;;;;87.65;10.98;;;;;;;17.23;92.47;99415.02;1611629;87;20989;-62
2022/08/18 04:06:45;;;;;;;111.47;11.05;;;;;;;17.37;92.37;99421.00;1563797;89;21576;-62
2022/08/18 04:09:14;;;;;;;92.10;9.78;;;;;;;17.55;92.29;99426.59;1605073;87;21035;-62
2022/08/18 04:11:42;;;;;;;138.62;11.43;;;;;;;17.67;91.99;99421.16;1602483;88;21092;-62
2022/08/18 04:14:11;;;;;;;112.47;9.80;;;;;;;17.82;91.88;99427.50;1610782;88;21115;-63
2022/08/18 04:16:39;;;;;;;99.47;10.25;;;;;;;18.05;92.25;99422.47;1600215;88;21035;-63
2022/08/18 04:19:07;;;;;;;47.30;9.83;;;;;;;18.31;92.17;99422.09;1616353;87;22012;-62
2022/08/18 04:21:38;;;;;;;21.48;8.83;;;;;;;18.53;92.08;99412.70;1594626;88;21092;-62
2022/08/18 04:24:07;;;;;;;16.73;8.08;;;;;;;18.87;92.21;99419.08;1598697;88;22180;-62
2022/08/18 04:26:44;;;;;;;41.88;10.18;;;;;;;19.21;91.73;99421.43;1600336;88;21052;-63
2022/08/18 04:29:16;;;;;;;11.63;9.50;;;;;;;19.50;91.57;99428.63;1598038;88;20965;-62
2022/08/18 04:31:43;;;;;;;11.63;9.68;;;;;;;19.81;91.79;99422.28;1604523;88;21233;-63
2022/08/18 04:34:10;;;;;;;;;;;;;;;20.16;91.26;99415.55;1604454;88;21675;-62
2022/08/18 04:36:37;;;;;;;8.50;7.37;;;;;;;20.66;91.52;99421.98;1596892;88;20115;-63
2022/08/18 04:39:07;;;;;;;8.15;7.22;;;;;;;21.11;90.95;99425.22;1600346;89;21099;-63
2022/08/18 04:41:37;;;;;;;9.00;6.62;;;;;;;21.52;90.75;99427.56;1598964;88;21139;-63
2022/08/18 04:44:07;;;;;;;10.45;5.72;;;;;;;22.01;91.04;99422.70;1617018;87;21444;-63
2022/08/18 04:46:42;;;;;;;7.12;6.17;;;;;;;22.43;89.94;99430.87;1571095;88;21589;-63
2022/08/18 04:49:10;;;;;;;6.67;6.08;;;;;;;22.74;89.50;99426.41;1604200;87;21341;-63
2022/08/18 04:51:42;;;;;;;7.03;5.85;;;;;;;23.16;89.86;99418.98;1599124;88;21068;-64
2022/08/18 04:54:08;;;;;;;20.25;8.38;;;;;;;23.62;89.15;99420.30;1600451;88;21042;-63
2022/08/18 04:56:39;;;;;;;11.08;6.45;;;;;;;23.95;88.91;99424.88;1597356;87;21582;-63
2022/08/18 05:00:18;;;;;;;7.20;6.12;;;;;;;23.80;86.74;99424.17;1867699;74;22086;-62
2022/08/18 05:02:45;;;;;;;7.67;6.50;;;;;;;23.64;87.05;99420.14;1820476;77;20930;-62
2022/08/18 05:05:11;;;;;;;8.33;6.78;;;;;;;23.40;86.42;99413.75;1822040;76;21795;-62
2022/08/18 05:07:44;;;;;;;9.23;6.28;;;;;;;23.15;86.16;99422.66;1822109;77;20899;-62
2022/08/18 05:10:11;;;;;;;7.37;6.53;;;;;;;23.00;86.45;99423.27;1829676;75;21189;-62
2022/08/18 05:12:41;;;;;;;;;;;;;;;23.10;86.58;99420.96;1825513;77;21522;-62
2022/08/18 05:15:09;;;;;;;7.78;6.78;;;;;;;23.32;86.44;99419.05;1823875;75;20066;-64
2022/08/18 05:17:38;;;;;;;8.88;6.25;;;;;;;23.46;86.13;99421.08;1823040;77;21070;-61
2022/08/18 05:20:08;;;;;;;14.45;7.25;;;;;;;23.56;85.75;99421.45;1823350;77;20950;-63
2022/08/18 05:22:40;;;;;;;11.85;6.80;;;;;;;23.70;85.70;99422.15;1827044;75;20997;-63
2022/08/18 05:25:10;;;;;;;7.25;6.45;;;;;;;23.78;85.52;99423.53;1840600;76;20913;-62
2022/08/18 05:27:42;;;;;;;10.63;6.40;;;;;;;23.87;85.29;99428.37;1842113;76;20934;-62
2022/08/18 05:30:11;;;;;;;6.53;5.92;;;;;;;23.95;85.23;99430.22;1837034;76;21083;-62
2022/08/18 05:32:43;;;;;;;12.33;6.65;;;;;;;23.97;84.75;99433.53;1812272;76;21025;-62
2022/08/18 05:35:24;;;;;;;8.10;6.78;;;;;;;23.86;84.49;99427.54;1841305;75;20961;-63
2022/08/18 05:38:16;;;;;;;10.53;7.58;;;;;;;23.74;84.38;99431.50;1837066;77;21072;-64
2022/08/18 05:40:50;;;;;;;9.05;8.15;;;;;;;23.70;84.85;99424.81;1839445;77;21080;-64
2022/08/18 05:43:15;;;;;;;10.90;9.43;;;;;;;23.70;84.92;99431.48;1841121;76;21926;-63
2022/08/18 05:45:42;;;;;;;10.48;9.03;;;;;;;23.63;84.62;99421.13;1840053;75;21566;-63
2022/08/18 05:48:09;;;;;;;14.33;10.18;;;;;;;23.54;84.24;99427.44;1843746;76;21009;-63
2022/08/18 05:50:37;;;;;;;12.75;10.88;;;;;;;23.32;84.46;99428.37;1843294;76;20946;-63
2022/08/18 05:53:14;;;;;;;13.43;11.22;;;;;;;23.28;84.57;99427.55;1838094;76;21590;-63
2022/08/18 05:58:41;;;;;;;;;;;;;;;23.37;84.10;99424.73;1836400;76;21662;-62
2022/08/18 06:01:24;;;;;;;15.55;11.90;;;;;;;23.54;84.04;99432.77;1834123;77;20144;-63
2022/08/18 06:04:02;;;;;;;16.20;12.47;;;;;;;23.74;84.27;99431.50;1834666;76;20978;-63
2022/08/18 06:06:31;;;;;;;19.62;11.75;;;;;;;24.00;83.98;99430.52;1842359;77;20918;-63
2022/08/18 06:09:18;;;;;;;16.37;12.25;;;;;;;24.20;83.96;99437.22;1845351;76;21906;-62
2022/08/18 06:11:46;;;;;;;23.85;13.60;;;;;;;24.37;83.40;99442.52;1830550;77;21490;-63
2022/08/18 06:14:15;;;;;;;26.25;14.10;;;;;;;24.43;83.44;99444.55;1844209;75;20895;-62
2022/08/18 06:16:59;;;;;;;24.60;14.07;;;;;;;24.43;82.71;99445.88;1838249;76;21049;-63
2022/08/18 06:20:13;;;;;;;24.05;13.75;;;;;;;24.35;82.34;99442.20;1840050;75;20891;-64
2022/08/18 06:22:51;;;;;;;22.87;13.70;;;;;;;24.35;82.61;99442.20;1841379;77;21081;-63
2022/08/18 06:25:39;;;;;;;25.25;13.68;;;;;;;24.41;82.67;99447.87;1837139;77;21551;-63
2022/08/18 06:28:14;;;;;;;27.27;14.40;;;;;;;24.44;82.64;99438.22;1836720;75;21094;-63
2022/08/18 06:31:04;;;;;;;31.17;16.32;;;;;;;24.54;82.58;99438.89;1839528;77;21029;-63
2022/08/18 06:33:52;;;;;;;20.32;13.78;;;;;;;24.67;82.49;99444.52;1839803;75;20997;-64
2022/08/18 06:36:49;;;;;;;26.70;13.32;;;;;;;24.70;82.02;99443.34;1834121;76;21061;-63
2022/08/18 06:39:37;;;;;;;28.35;14.03;;;;;;;24.77;82.07;99435.83;1844286;76;21814;-63
2022/08/18 06:42:04;;;;;;;28.75;13.90;;;;;;;24.86;82.08;99443.30;1826104;77;21013;-62
2022/08/18 06:44:45;;;;;;;17.98;13.13;;;;;;;25.03;81.86;99446.76;1833983;77;20958;-62
2022/08/18 06:47:39;;;;;;;20.82;13.00;;;;;;;25.08;81.21;99446.25;1838004;76;20926;-63
2022/08/18 06:50:11;;;;;;;26.93;13.98;;;;;;;25.16;81.48;99445.74;1827193;76;22340;-63
2022/08/18 06:52:57;;;;;;;19.70;13.78;;;;;;;25.38;81.41;99437.98;1852324;76;20926;-63
2022/08/18 06:55:43;;;;;;;24.00;13.85;;;;;;;25.54;81.13;99437.03;1822244;77;20977;-63
2022/08/18 06:58:18;;;;;;;19.87;12.55;;;;;;;25.72;80.87;99443.46;1831951;76;20997;-63
2022/08/18 07:00:59;;;;;;;17.00;10.93;;;;;;;25.77;80.48;99440.59;1848136;76;20981;-63
2022/08/18 07:03:53;;;;;;;19.80;12.50;;;;;;;25.78;80.01;99440.08;1839449;75;21142;-63
2022/08/18 07:06:52;;;;;;;21.93;13.63;;;;;;;25.97;79.97;99444.98;1869438;75;22633;-62
2022/08/18 07:09:29;;;;;;;16.67;12.98;;;;;;;26.12;80.64;99449.88;1848757;77;21040;-61
2022/08/18 07:12:09;;;;;;;16.42;11.75;;;;;;;26.56;80.56;99439.81;1811834;77;21908;-62
2022/08/18 07:14:47;;;;;;;17.57;12.60;;;;;;;26.96;80.13;99439.56;1853667;77;20965;-62
2022/08/18 07:17:22;;;;;;;16.32;11.90;;;;;;;27.26;79.77;99437.73;1847434;77;21035;-62
2022/08/18 07:20:09;;;;;;;17.80;11.22;;;;;;;27.54;79.66;99431.66;1856098;76;21578;-63
2022/08/18 07:23:01;;;;;;;15.63;13.08;;;;;;;27.83;79.42;99436.94;1833085;77;20963;-62
2022/08/18 07:25:50;;;;;;;18.92;12.18;;;;;;;28.02;78.80;99435.99;1837762;77;21049;-62
2022/08/18 07:28:40;;;;;;;18.98;11.83;;;;;;;28.03;77.90;99432.27;1656442;84;21078;-61
2022/08/18 07:31:23;;;;;;;16.37;11.05;;;;;;;28.01;77.42;99434.34;1652262;84;21008;-61
2022/08/18 07:33:58;;;;;;;19.07;13.70;;;;;;;27.98;76.79;99430.67;1654501;85;20936;-61
2022/08/18 07:36:30;;;;;;;19.82;12.37;;;;;;;27.88;76.58;99439.06;1655018;85;21004;-62
2022/08/18 07:39:09;;;;;;;15.90;11.38;;;;;;;27.76;75.91;99441.39;1656374;85;21396;-62
2022/08/18 07:41:44;;;;;;;22.75;12.55;;;;;;;27.63;75.79;99441.24;1652738;85;21112;-61
2022/08/18 07:44:24;;;;;;;16.07;12.55;;;;;;;27.57;75.68;99444.69;1626176;86;21608;-62
2022/08/18 07:46:59;;;;;;;14.05;12.47;;;;;;;27.62;75.37;99436.91;1655212;84;20945;-62
2022/08/18 07:49:34;;;;;;;19.30;12.00;;;;;;;27.55;74.57;99444.86;1656059;85;21159;-62
2022/08/18 07:52:43;;;;;;;17.75;12.05;;;;;;;27.48;74.13;99445.83;1620245;86;21883;-62
2022/08/18 07:55:34;;;;;;;31.62;21.33;;;;;;;27.44;74.17;99444.02;1621553;86;21609;-61
2022/08/18 07:58:25;;;;;;;20.17;12.93;;;;;;;27.56;73.96;99441.66;1590698;88;21140;-62
2022/08/18 08:01:14;;;;;;;18.02;11.83;;;;;;;27.77;73.80;99443.56;1573685;89;21114;-62
2022/08/18 08:04:10;;;;;;;19.35;13.30;;;;;;;27.96;73.36;99443.47;1562698;90;21074;-61
2022/08/18 08:06:45;;;;;;;14.43;12.55;;;;;;;28.06;72.85;99443.97;1565464;90;21945;-61
2022/08/18 08:09:33;;;;;;;16.82;11.30;;;;;;;28.12;72.56;99447.24;1588156;88;21102;-62
2022/08/18 08:12:05;;;;;;;13.30;11.30;;;;;;;28.17;72.08;99450.16;1606600;87;21087;-61
2022/08/18 08:15:34;;;;;;;18.43;11.70;;;;;;;28.23;71.41;99446.72;1811441;77;27835;-61
2022/08/18 08:18:36;;;;;;;22.30;12.88;;;;;;;28.40;71.18;99453.13;1780381;78;21605;-62
2022/08/18 08:21:19;;;;;;;16.90;12.18;;;;;;;28.50;70.37;99457.17;1780912;78;21097;-62
2022/08/18 08:24:10;;;;;;;12.82;10.85;;;;;;;28.58;69.84;99453.52;1773938;78;20907;-60
2022/08/18 08:27:19;;;;;;;16.77;12.03;;;;;;;28.51;69.06;99448.11;1773368;80;21523;-62
2022/08/18 08:30:09;;;;;;;15.90;10.90;;;;;;;28.45;68.88;99459.61;1621721;86;20987;-64
2022/08/18 08:32:50;;;;;;;19.65;12.73;;;;;;;28.30;68.13;99450.28;1628538;86;20910;-63
2022/08/18 08:35:22;;;;;;;18.45;12.82;;;;;;;28.18;67.98;99449.67;1626918;86;21123;-62
2022/08/18 08:40:52;;;;;;;19.62;14.55;;;;;;;28.30;67.83;99448.94;1649215;85;21017;-62
2022/08/18 08:43:24;;;;;;;21.95;13.05;;;;;;;28.40;68.06;99454.47;1653925;85;21064;-63
2022/08/18 08:46:09;;;;;;;18.95;12.78;;;;;;;28.49;67.42;99452.02;1650692;84;21047;-62
2022/08/18 08:48:47;;;;;;;18.42;11.63;;;;;;;28.54;66.98;99445.55;1661775;84;21157;-61
2022/08/18 08:51:37;;;;;;;16.10;12.10;;;;;;;28.61;67.19;99451.78;1648913;85;21058;-61
2022/08/18 08:54:32;;;;;;;15.83;12.35;;;;;;;28.71;66.99;99448.77;1639951;85;21738;-63
2022/08/18 08:57:03;;;;;;;18.98;13.58;;;;;;;28.76;66.79;99449.84;1625796;87;21115;-62
2022/08/18 08:59:30;;;;;;;18.10;12.85;;;;;;;28.86;66.69;99449.98;1612045;87;21534;-62
2022/08/18 09:02:25;;;;;;;18.55;13.32;;;;;;;28.97;66.21;99446.74;1626723;87;22069;-62
2022/08/18 09:05:17;;;;;;;20.85;12.35;;;;;;;28.98;65.86;99456.45;1609717;87;21051;-62
2022/08/18 09:08:21;;;;;;;17.20;11.70;;;;;;;29.01;65.71;99454.19;1609967;88;21061;-62
2022/08/18 09:11:19;;;;;;;14.80;10.75;;;;;;;29.20;65.88;99447.30;1608651;88;21095;-60
2022/08/18 09:14:06;;;;;;;23.52;10.25;;;;;;;29.42;65.26;99453.39;1559330;90;21109;-61
2022/08/18 09:17:08;;;;;;;14.85;10.40;;;;;;;29.64;65.39;99447.39;1557903;90;21265;-62
2022/08/18 09:20:11;;;;;;;19.07;10.43;;;;;;;29.80;64.96;99444.84;1550968;90;21740;-62
2022/08/18 09:22:55;;;;;;;11.25;8.18;;;;;;;30.01;64.73;99448.39;1555014;91;21718;-62
2022/08/18 09:25:42;;;;;;;11.70;7.65;;;;;;;30.17;63.31;99447.17;1557999;90;21711;-61
2022/08/18 09:28:32;;;;;;;11.78;9.03;;;;;;;29.84;62.72;99439.88;1553236;90;21651;-62
2022/08/18 09:31:07;;;;;;;11.93;8.13;;;;;;;29.66;62.90;99448.52;1518531;93;21369;-60
2022/08/18 09:33:45;;;;;;;25.10;10.00;;;;;;;29.50;62.55;99440.28;1546271;91;21708;-60
2022/08/18 09:36:46;;;;;;;14.25;8.68;;;;;;;29.37;62.20;99444.27;1552528;90;21590;-63
2022/08/18 09:42:42;;;;;;;14.23;8.90;;;;;;;29.22;61.78;99438.52;1550458;91;21134;-62
2022/08/18 09:45:32;;;;;;;13.43;8.30;;;;;;;29.32;61.90;99437.31;1516755;93;21227;-62
2022/08/18 09:48:07;;;;;;;15.63;8.85;;;;;;;29.15;61.06;99435.48;1555691;90;21152;-62
2022/08/18 09:50:39;;;;;;;12.28;8.50;;;;;;;28.81;60.92;99439.00;1563952;88;21150;-62
2022/08/18 09:53:36;;;;;;;13.08;8.88;;;;;;;28.73;61.21;99438.11;1594099;88;20992;-62
2022/08/18 09:56:06;;;;;;;25.10;9.68;;;;;;;28.83;61.52;99442.33;1594336;88;20964;-63
2022/08/18 09:59:03;;;;;;;12.73;8.50;;;;;;;29.09;61.29;99439.80;1665120;84;20938;-59
2022/08/18 10:01:38;;;;;;;15.72;8.15;;;;;;;29.10;60.98;99433.90;1634753;84;21004;-62
2022/08/18 10:04:28;;;;;;;14.05;8.18;;;;;;;29.11;60.88;99440.44;1670655;84;20989;-62
2022/08/18 10:07:18;;;;;;;11.10;7.83;;;;;;;29.28;61.16;99442.79;1682429;83;21018;-61
2022/08/18 10:10:05;;;;;;;15.32;7.53;;;;;;;29.49;60.78;99448.02;1622574;86;21609;-63
2022/08/18 10:12:55;;;;;;;10.95;7.58;;;;;;;29.45;60.45;99446.78;1627639;85;22332;-63
2022/08/18 10:15:50;;;;;;;14.70;8.10;;;;;;;29.51;60.36;99443.28;1618962;86;21200;-62
2022/08/18 10:18:33;;;;;;;13.15;7.72;;;;;;;29.65;60.46;99442.31;1578827;89;21156;-64
2022/08/18 10:21:29;;;;;;;12.78;7.37;;;;;;;29.76;59.97;99440.89;1551619;91;21566;-63
2022/08/18 10:24:10;;;;;;;10.48;7.35;;;;;;;29.84;59.93;99447.95;1548557;91;21062;-62
2022/08/18 10:26:45;;;;;;;13.08;8.33;;;;;;;30.00;59.72;99447.57;1559610;91;21175;-62
2022/08/18 10:29:32;;;;;;;15.43;8.43;;;;;;;30.24;60.03;99445.33;1608105;88;21643;-62
2022/08/18 10:32:07;;;;;;;13.53;8.23;;;;;;;30.60;59.73;99445.42;1599673;88;21091;-62
2022/08/18 10:34:41;;;;;;;15.43;8.40;;;;;;;30.84;59.40;99443.44;1597528;88;21105;-64
2022/08/18 10:37:37;;;;;;;14.18;8.08;;;;;;;30.93;58.85;99442.16;1598480;88;21072;-62
2022/08/18 10:40:12;;;;;;;11.12;6.87;;;;;;;31.18;58.92;99438.77;1596451;88;21194;-63
2022/08/18 10:42:44;;;;;;;21.57;7.28;;;;;;;31.51;58.91;99438.66;1610137;88;22266;-62
2022/08/18 10:45:24;;;;;;;12.30;6.90;;;;;;;31.78;57.85;99437.96;1600222;88;21601;-62
2022/08/18 10:48:24;;;;;;;14.23;6.70;;;;;;;31.86;56.53;99433.66;1613200;87;21592;-61
2022/08/18 10:51:17;;;;;;;19.80;6.83;;;;;;;31.76;56.96;99433.33;1588458;85;21619;-62
2022/08/18 10:54:05;;;;;;;11.60;6.42;;;;;;;31.84;56.76;99433.03;1652989;85;21884;-61
2022/08/18 10:56:44;;;;;;;11.60;6.65;;;;;;;31.92;56.52;99428.47;1636872;85;20986;-63
2022/08/18 10:59:42;;;;;;;8.10;5.72;;;;;;;31.99;56.27;99423.86;1633800;86;21033;-62
2022/08/18 11:02:58;;;;;;;17.00;6.15;;;;;;;32.20;55.50;99420.76;1629204;86;20989;-60
2022/08/18 11:05:27;;;;;;;10.00;6.65;;;;;;;32.33;55.07;99424.70;1614333;86;20997;-61
2022/08/18 11:08:01;;;;;;;13.10;6.40;;;;;;;32.17;54.74;99425.25;1624924;86;21189;-62
2022/08/18 11:10:47;;;;;;;10.10;6.47;;;;;;;32.04;54.77;99422.16;1633293;86;21053;-62
2022/08/18 11:13:43;;;;;;;11.33;5.90;;;;;;;32.06;53.86;99419.22;1541236;90;21160;-63
2022/08/18 11:16:23;;;;;;;15.98;6.50;;;;;;;31.96;53.61;99418.87;1535669;91;21084;-63
2022/08/18 11:18:56;;;;;;;10.43;7.30;;;;;;;32.06;53.84;99416.52;1574367;88;21004;-63
2022/08/18 11:21:41;;;;;;;10.18;6.53;;;;;;;31.88;52.73;99419.42;1591198;88;22051;-62
2022/08/18 11:24:23;;;;;;;17.20;6.78;;;;;;;31.65;52.51;99421.87;1600600;88;20994;-61
2022/08/18 11:27:01;;;;;;;10.72;6.70;;;;;;;31.62;52.88;99421.78;1588482;88;21358;-62
2022/08/18 11:29:32;;;;;;;13.20;6.83;;;;;;;31.78;52.75;99417.72;1578689;88;21060;-62
2022/08/18 11:32:04;;;;;;;10.18;6.58;;;;;;;32.05;52.64;99414.87;1585426;88;21188;-62
2022/08/18 11:34:45;;;;;;;13.15;7.45;;;;;;;32.23;52.53;99409.51;1601376;88;21459;-62
2022/08/18 11:37:38;;;;;;;8.73;6.10;;;;;;;32.40;52.36;99406.25;1595472;87;21113;-63
2022/08/18 11:40:33;;;;;;;10.13;6.15;;;;;;;32.57;52.21;99400.59;1578290;88;21172;-62
2022/08/18 11:43:14;;;;;;;9.80;6.55;;;;;;;32.79;52.17;99401.52;1590960;88;21630;-61
2022/08/18 11:45:54;;;;;;;10.08;6.10;;;;;;;33.09;51.97;99390.27;1572480;88;21033;-62
2022/08/18 11:48:39;;;;;;;8.15;6.37;;;;;;;33.21;51.34;99393.84;1599420;87;21173;-63
2022/08/18 11:51:17;;;;;;;13.28;6.65;;;;;;;32.98;50.99;99389.65;1637794;84;21494;-61
2022/08/18 11:53:51;;;;;;;9.18;6.45;;;;;;;32.75;50.64;99393.86;1634041;85;21088;-62
2022/08/18 11:56:26;;;;;;;10.70;6.40;;;;;;;32.73;50.91;99395.14;1649796;85;21479;-62
2022/08/18 11:59:10;;;;;;;9.65;6.60;;;;;;;32.87;50.45;99393.93;1655118;85;21095;-62
2022/08/18 12:01:53;;;;;;;8.70;5.50;;;;;;;32.72;49.93;99397.02;1653520;84;21417;-62
2022/08/18 12:04:37;;;;;;;11.53;6.25;;;;;;;32.58;50.18;99390.11;1649160;85;20981;-61
2022/08/18 12:07:27;;;;;;;8.98;5.95;;;;;;;32.59;50.25;99397.16;1649830;85;21096;-63
2022/08/18 12:10:24;;;;;;;8.50;6.12;;;;;;;32.71;50.13;99384.56;1645228;85;21020;-62
2022/08/18 12:12:53;;;;;;;16.65;6.05;;;;;;;32.73;49.70;99377.03;1635643;85;21771;-62
2022/08/18 12:15:31;;;;;;;16.30;6.20;;;;;;;32.55;49.00;99371.64;1622869;87;21110;-62
2022/08/18 12:17:57;;;;;;;9.35;6.00;;;;;;;32.28;48.71;99377.26;1599509;88;21063;-61
2022/08/18 12:20:24;;;;;;;8.78;6.58;;;;;;;32.02;49.04;99376.16;1626095;86;21103;-61
2022/08/18 12:22:54;;;;;;;11.93;6.78;;;;;;;31.99;48.95;99372.03;1627326;86;21036;-61
2022/08/18 12:25:21;;;;;;;10.55;5.87;;;;;;;32.01;48.94;99370.44;1595757;88;21095;-62